sensor_id;sensor_type;location;lat;lon;timestamp;temperature;humidity
21216;DHT22;10765;50.954;5.322;2022-10-28T00:00:50;18.20;1.00
21216;DHT22;10765;50.954;5.322;2022-10-28T00:03:18;18.20;1.00
21216;DHT22;10765;50.954;5.322;2022-10-28T00:05:45;18.20;1.00
21216;DHT22;10765;50.954;5.322;2022-10-28T00:08:12;18.10;1.00
21216;DHT22;10765;50.954;5.322;2022-10-28T00:10:39;18.00;1.00
21216;DHT22;10765;50.954;5.322;2022-10-28T00:13:06;18.00;1.00
21216;DHT22;10765;50.954;5.322;2022-10-28T00:15:33;17.80;1.00
21216;DHT22;10765;50.954;5.322;2022-10-28T00:18:02;17.70;1.00
21216;DHT22;10765;50.954;5.322;2022-10-28T00:20:29;17.60;9.80
21216;DHT22;10765;50.954;5.322;2022-10-28T00:22:57;17.50;9.20
21216;DHT22;10765;50.954;5.322;2022-10-28T00:25:24;17.50;60.70
21216;DHT22;10765;50.954;5.322;2022-10-28T00:27:50;17.40;83.40
21216;DHT22;10765;50.954;5.322;2022-10-28T00:30:17;17.30;99.90
21216;DHT22;10765;50.954;5.322;2022-10-28T00:32:44;17.20;99.90
21216;DHT22;10765;50.954;5.322;2022-10-28T00:35:16;17.20;99.90
21216;DHT22;10765;50.954;5.322;2022-10-28T00:37:43;17.20;99.90
21216;DHT22;10765;50.954;5.322;2022-10-28T00:40:10;17.20;99.90
21216;DHT22;10765;50.954;5.322;2022-10-28T00:42:37;17.20;99.90
21216;DHT22;10765;50.954;5.322;2022-10-28T00:45:05;17.20;99.90
21216;DHT22;10765;50.954;5.322;2022-10-28T00:47:43;17.30;99.90
21216;DHT22;10765;50.954;5.322;2022-10-28T00:50:30;17.30;99.90
21216;DHT22;10765;50.954;5.322;2022-10-28T00:53:02;17.40;99.90
21216;DHT22;10765;50.954;5.322;2022-10-28T00:55:30;17.40;99.90
21216;DHT22;10765;50.954;5.322;2022-10-28T00:58:00;17.50;99.90
21216;DHT22;10765;50.954;5.322;2022-10-28T01:00:28;17.50;99.90
21216;DHT22;10765;50.954;5.322;2022-10-28T01:02:54;17.60;99.90
21216;DHT22;10765;50.954;5.322;2022-10-28T01:05:26;17.50;99.90
21216;DHT22;10765;50.954;5.322;2022-10-28T01:07:57;17.50;99.90
21216;DHT22;10765;50.954;5.322;2022-10-28T01:10:31;17.50;99.90
21216;DHT22;10765;50.954;5.322;2022-10-28T01:13:08;17.50;99.90
21216;DHT22;10765;50.954;5.322;2022-10-28T01:15:42;17.60;99.90
21216;DHT22;10765;50.954;5.322;2022-10-28T01:18:18;17.60;99.90
21216;DHT22;10765;50.954;5.322;2022-10-28T01:21:14;17.60;99.90
21216;DHT22;10765;50.954;5.322;2022-10-28T01:23:57;17.80;80.10
21216;DHT22;10765;50.954;5.322;2022-10-28T01:26:56;17.80;22.90
21216;DHT22;10765;50.954;5.322;2022-10-28T01:29:49;17.60;56.60
21216;DHT22;10765;50.954;5.322;2022-10-28T01:32:29;17.60;63.10
21216;DHT22;10765;50.954;5.322;2022-10-28T01:35:09;17.50;93.40
21216;DHT22;10765;50.954;5.322;2022-10-28T01:37:44;17.40;99.90
21216;DHT22;10765;50.954;5.322;2022-10-28T01:40:17;17.40;99.90
21216;DHT22;10765;50.954;5.322;2022-10-28T01:42:52;17.40;99.90
21216;DHT22;10765;50.954;5.322;2022-10-28T01:45:24;17.50;99.90
21216;DHT22;10765;50.954;5.322;2022-10-28T01:47:56;17.60;54.00
21216;DHT22;10765;50.954;5.322;2022-10-28T01:50:29;17.50;52.10
21216;DHT22;10765;50.954;5.322;2022-10-28T01:53:00;17.50;49.10
21216;DHT22;10765;50.954;5.322;2022-10-28T01:55:33;17.50;54.70
21216;DHT22;10765;50.954;5.322;2022-10-28T01:58:02;17.50;46.70
21216;DHT22;10765;50.954;5.322;2022-10-28T02:00:31;17.40;54.60
21216;DHT22;10765;50.954;5.322;2022-10-28T02:03:00;17.30;99.90
21216;DHT22;10765;50.954;5.322;2022-10-28T02:05:38;17.30;99.90
21216;DHT22;10765;50.954;5.322;2022-10-28T02:08:18;17.30;99.90
21216;DHT22;10765;50.954;5.322;2022-10-28T02:10:55;17.30;99.90
21216;DHT22;10765;50.954;5.322;2022-10-28T02:13:30;17.20;99.90
21216;DHT22;10765;50.954;5.322;2022-10-28T02:16:06;17.40;99.90
21216;DHT22;10765;50.954;5.322;2022-10-28T02:18:44;17.30;91.00
21216;DHT22;10765;50.954;5.322;2022-10-28T02:21:18;17.20;99.90
21216;DHT22;10765;50.954;5.322;2022-10-28T02:23:51;17.20;99.90
21216;DHT22;10765;50.954;5.322;2022-10-28T02:26:21;17.10;99.90
21216;DHT22;10765;50.954;5.322;2022-10-28T02:28:57;17.20;99.90
21216;DHT22;10765;50.954;5.322;2022-10-28T02:31:33;17.40;94.40
21216;DHT22;10765;50.954;5.322;2022-10-28T02:34:06;17.30;87.10
21216;DHT22;10765;50.954;5.322;2022-10-28T02:36:39;17.20;99.90
21216;DHT22;10765;50.954;5.322;2022-10-28T02:39:07;17.30;99.70
21216;DHT22;10765;50.954;5.322;2022-10-28T02:41:39;17.30;99.90
21216;DHT22;10765;50.954;5.322;2022-10-28T02:44:17;17.30;91.90
21216;DHT22;10765;50.954;5.322;2022-10-28T02:46:46;17.40;67.50
21216;DHT22;10765;50.954;5.322;2022-10-28T02:49:15;17.30;56.40
21216;DHT22;10765;50.954;5.322;2022-10-28T02:51:45;17.30;56.00
21216;DHT22;10765;50.954;5.322;2022-10-28T02:54:16;17.30;52.10
21216;DHT22;10765;50.954;5.322;2022-10-28T02:56:48;17.40;43.80
21216;DHT22;10765;50.954;5.322;2022-10-28T02:59:16;17.40;41.40
21216;DHT22;10765;50.954;5.322;2022-10-28T03:01:43;17.40;20.50
21216;DHT22;10765;50.954;5.322;2022-10-28T03:04:10;17.30;37.80
21216;DHT22;10765;50.954;5.322;2022-10-28T03:06:38;17.10;99.90
21216;DHT22;10765;50.954;5.322;2022-10-28T03:09:05;17.10;99.90
21216;DHT22;10765;50.954;5.322;2022-10-28T03:11:32;16.90;99.90
21216;DHT22;10765;50.954;5.322;2022-10-28T03:13:59;16.90;99.90
21216;DHT22;10765;50.954;5.322;2022-10-28T03:16:28;16.90;99.90
21216;DHT22;10765;50.954;5.322;2022-10-28T03:18:55;16.80;99.90
21216;DHT22;10765;50.954;5.322;2022-10-28T03:21:22;16.80;99.90
21216;DHT22;10765;50.954;5.322;2022-10-28T03:23:50;16.80;99.90
21216;DHT22;10765;50.954;5.322;2022-10-28T03:26:18;16.90;99.90
21216;DHT22;10765;50.954;5.322;2022-10-28T03:28:45;16.80;99.90
21216;DHT22;10765;50.954;5.322;2022-10-28T03:31:13;16.70;99.90
21216;DHT22;10765;50.954;5.322;2022-10-28T03:33:40;16.60;99.90
21216;DHT22;10765;50.954;5.322;2022-10-28T03:36:07;16.60;99.90
21216;DHT22;10765;50.954;5.322;2022-10-28T03:38:34;16.50;99.90
21216;DHT22;10765;50.954;5.322;2022-10-28T03:41:02;16.50;99.90
21216;DHT22;10765;50.954;5.322;2022-10-28T03:43:29;16.40;99.90
21216;DHT22;10765;50.954;5.322;2022-10-28T03:45:56;16.30;99.90
21216;DHT22;10765;50.954;5.322;2022-10-28T03:48:23;16.40;99.90
21216;DHT22;10765;50.954;5.322;2022-10-28T03:50:51;16.30;1.00
21216;DHT22;10765;50.954;5.322;2022-10-28T03:53:18;16.30;1.00
21216;DHT22;10765;50.954;5.322;2022-10-28T03:55:51;16.30;1.00
21216;DHT22;10765;50.954;5.322;2022-10-28T03:58:19;16.30;1.00
21216;DHT22;10765;50.954;5.322;2022-10-28T04:00:46;16.30;1.00
21216;DHT22;10765;50.954;5.322;2022-10-28T04:03:14;16.30;1.00
21216;DHT22;10765;50.954;5.322;2022-10-28T04:05:41;16.30;1.00
21216;DHT22;10765;50.954;5.322;2022-10-28T04:08:08;16.30;1.00
21216;DHT22;10765;50.954;5.322;2022-10-28T04:10:35;16.40;1.00
21216;DHT22;10765;50.954;5.322;2022-10-28T04:13:03;16.30;1.00
21216;DHT22;10765;50.954;5.322;2022-10-28T04:15:31;16.30;1.00
21216;DHT22;10765;50.954;5.322;2022-10-28T04:17:58;16.30;1.00
21216;DHT22;10765;50.954;5.322;2022-10-28T04:20:26;16.20;1.00
21216;DHT22;10765;50.954;5.322;2022-10-28T04:22:53;16.20;1.00
21216;DHT22;10765;50.954;5.322;2022-10-28T04:25:20;16.30;1.00
21216;DHT22;10765;50.954;5.322;2022-10-28T04:27:47;16.20;1.00
21216;DHT22;10765;50.954;5.322;2022-10-28T04:30:14;16.20;1.00
21216;DHT22;10765;50.954;5.322;2022-10-28T04:32:43;16.20;1.00
21216;DHT22;10765;50.954;5.322;2022-10-28T04:35:12;16.20;1.00
21216;DHT22;10765;50.954;5.322;2022-10-28T04:37:40;16.10;1.00
21216;DHT22;10765;50.954;5.322;2022-10-28T04:40:08;16.20;1.00
21216;DHT22;10765;50.954;5.322;2022-10-28T04:42:35;16.20;95.20
21216;DHT22;10765;50.954;5.322;2022-10-28T04:45:02;16.20;99.90
21216;DHT22;10765;50.954;5.322;2022-10-28T04:47:29;16.20;63.60
21216;DHT22;10765;50.954;5.322;2022-10-28T04:49:57;16.20;70.70
21216;DHT22;10765;50.954;5.322;2022-10-28T04:52:24;16.20;26.10
21216;DHT22;10765;50.954;5.322;2022-10-28T04:54:51;16.10;99.90
21216;DHT22;10765;50.954;5.322;2022-10-28T04:57:17;16.20;99.90
21216;DHT22;10765;50.954;5.322;2022-10-28T04:59:44;16.20;99.90
21216;DHT22;10765;50.954;5.322;2022-10-28T05:02:11;16.20;99.90
21216;DHT22;10765;50.954;5.322;2022-10-28T05:04:38;16.20;99.90
21216;DHT22;10765;50.954;5.322;2022-10-28T05:07:06;16.20;99.90
21216;DHT22;10765;50.954;5.322;2022-10-28T05:09:33;16.20;99.90
21216;DHT22;10765;50.954;5.322;2022-10-28T05:12:00;16.20;99.90
21216;DHT22;10765;50.954;5.322;2022-10-28T05:14:27;16.30;99.90
21216;DHT22;10765;50.954;5.322;2022-10-28T05:16:54;16.20;99.90
21216;DHT22;10765;50.954;5.322;2022-10-28T05:19:21;16.30;99.90
21216;DHT22;10765;50.954;5.322;2022-10-28T05:21:48;16.20;99.90
21216;DHT22;10765;50.954;5.322;2022-10-28T05:24:16;16.30;99.90
21216;DHT22;10765;50.954;5.322;2022-10-28T05:26:43;16.40;61.00
21216;DHT22;10765;50.954;5.322;2022-10-28T05:29:10;16.40;22.90
21216;DHT22;10765;50.954;5.322;2022-10-28T05:31:37;16.50;1.00
21216;DHT22;10765;50.954;5.322;2022-10-28T05:34:04;16.50;1.00
21216;DHT22;10765;50.954;5.322;2022-10-28T05:36:31;16.50;1.00
21216;DHT22;10765;50.954;5.322;2022-10-28T05:38:57;16.50;1.00
21216;DHT22;10765;50.954;5.322;2022-10-28T05:41:26;16.50;1.00
21216;DHT22;10765;50.954;5.322;2022-10-28T05:43:52;16.40;1.00
21216;DHT22;10765;50.954;5.322;2022-10-28T05:46:19;16.50;1.00
21216;DHT22;10765;50.954;5.322;2022-10-28T05:48:47;16.40;1.00
21216;DHT22;10765;50.954;5.322;2022-10-28T05:51:14;16.30;1.00
21216;DHT22;10765;50.954;5.322;2022-10-28T05:53:41;16.30;93.10
21216;DHT22;10765;50.954;5.322;2022-10-28T05:56:09;16.20;99.90
21216;DHT22;10765;50.954;5.322;2022-10-28T05:58:37;16.20;99.90
21216;DHT22;10765;50.954;5.322;2022-10-28T06:01:06;16.10;99.90
21216;DHT22;10765;50.954;5.322;2022-10-28T06:03:33;16.10;99.90
21216;DHT22;10765;50.954;5.322;2022-10-28T06:06:00;16.10;99.90
21216;DHT22;10765;50.954;5.322;2022-10-28T06:08:27;16.10;99.90
21216;DHT22;10765;50.954;5.322;2022-10-28T06:10:55;16.10;1.00
21216;DHT22;10765;50.954;5.322;2022-10-28T06:13:22;16.00;1.00
21216;DHT22;10765;50.954;5.322;2022-10-28T06:15:54;16.00;1.00
21216;DHT22;10765;50.954;5.322;2022-10-28T06:18:22;16.00;1.00
21216;DHT22;10765;50.954;5.322;2022-10-28T06:20:53;16.00;1.00
21216;DHT22;10765;50.954;5.322;2022-10-28T06:23:20;16.00;1.00
21216;DHT22;10765;50.954;5.322;2022-10-28T06:25:47;16.00;1.00
21216;DHT22;10765;50.954;5.322;2022-10-28T06:28:14;16.00;1.00
21216;DHT22;10765;50.954;5.322;2022-10-28T06:30:41;16.10;1.00
21216;DHT22;10765;50.954;5.322;2022-10-28T06:33:09;16.10;1.00
21216;DHT22;10765;50.954;5.322;2022-10-28T06:35:36;16.10;1.00
21216;DHT22;10765;50.954;5.322;2022-10-28T06:38:03;16.20;1.00
21216;DHT22;10765;50.954;5.322;2022-10-28T06:40:30;16.30;1.00
21216;DHT22;10765;50.954;5.322;2022-10-28T06:42:57;16.30;1.00
21216;DHT22;10765;50.954;5.322;2022-10-28T06:45:24;16.30;1.00
21216;DHT22;10765;50.954;5.322;2022-10-28T06:47:54;16.30;1.00
21216;DHT22;10765;50.954;5.322;2022-10-28T06:50:23;16.40;99.90
21216;DHT22;10765;50.954;5.322;2022-10-28T06:52:50;16.60;99.90
21216;DHT22;10765;50.954;5.322;2022-10-28T06:55:17;16.80;99.90
21216;DHT22;10765;50.954;5.322;2022-10-28T06:57:44;16.80;1.00
21216;DHT22;10765;50.954;5.322;2022-10-28T07:00:12;17.00;1.00
21216;DHT22;10765;50.954;5.322;2022-10-28T07:02:39;17.20;1.00
21216;DHT22;10765;50.954;5.322;2022-10-28T07:05:07;17.30;1.00
21216;DHT22;10765;50.954;5.322;2022-10-28T07:07:35;17.50;99.90
21216;DHT22;10765;50.954;5.322;2022-10-28T07:10:03;17.60;99.90
21216;DHT22;10765;50.954;5.322;2022-10-28T07:12:30;17.70;99.90
21216;DHT22;10765;50.954;5.322;2022-10-28T07:14:57;17.80;99.90
21216;DHT22;10765;50.954;5.322;2022-10-28T07:17:24;17.90;99.90
21216;DHT22;10765;50.954;5.322;2022-10-28T07:19:51;17.80;99.90
21216;DHT22;10765;50.954;5.322;2022-10-28T07:22:18;17.70;99.90
21216;DHT22;10765;50.954;5.322;2022-10-28T07:24:46;17.70;99.90
21216;DHT22;10765;50.954;5.322;2022-10-28T07:27:13;17.70;99.90
21216;DHT22;10765;50.954;5.322;2022-10-28T07:29:40;17.80;99.90
21216;DHT22;10765;50.954;5.322;2022-10-28T07:32:07;17.80;99.90
21216;DHT22;10765;50.954;5.322;2022-10-28T07:34:34;17.90;99.90
21216;DHT22;10765;50.954;5.322;2022-10-28T07:37:01;18.10;99.90
21216;DHT22;10765;50.954;5.322;2022-10-28T07:39:28;18.80;99.90
21216;DHT22;10765;50.954;5.322;2022-10-28T07:41:57;19.90;1.00
21216;DHT22;10765;50.954;5.322;2022-10-28T07:44:25;21.00;1.00
21216;DHT22;10765;50.954;5.322;2022-10-28T07:46:52;21.60;1.00
21216;DHT22;10765;50.954;5.322;2022-10-28T07:49:19;21.70;1.00
21216;DHT22;10765;50.954;5.322;2022-10-28T07:51:48;22.00;1.00
21216;DHT22;10765;50.954;5.322;2022-10-28T07:54:15;22.30;1.00
21216;DHT22;10765;50.954;5.322;2022-10-28T07:56:42;22.60;1.00
21216;DHT22;10765;50.954;5.322;2022-10-28T07:59:10;23.20;1.00
21216;DHT22;10765;50.954;5.322;2022-10-28T08:01:37;23.80;1.00
21216;DHT22;10765;50.954;5.322;2022-10-28T08:04:04;24.30;1.00
21216;DHT22;10765;50.954;5.322;2022-10-28T08:06:33;24.70;1.00
21216;DHT22;10765;50.954;5.322;2022-10-28T08:09:00;25.10;1.00
21216;DHT22;10765;50.954;5.322;2022-10-28T08:11:27;25.50;1.00
21216;DHT22;10765;50.954;5.322;2022-10-28T08:13:57;25.80;1.00
21216;DHT22;10765;50.954;5.322;2022-10-28T08:16:28;26.40;99.90
21216;DHT22;10765;50.954;5.322;2022-10-28T08:18:55;26.70;99.90
21216;DHT22;10765;50.954;5.322;2022-10-28T08:21:22;26.70;99.90
21216;DHT22;10765;50.954;5.322;2022-10-28T08:23:52;26.50;99.90
21216;DHT22;10765;50.954;5.322;2022-10-28T08:26:19;26.60;99.90
21216;DHT22;10765;50.954;5.322;2022-10-28T08:28:46;26.70;99.90
21216;DHT22;10765;50.954;5.322;2022-10-28T08:31:13;26.60;99.90
21216;DHT22;10765;50.954;5.322;2022-10-28T08:33:42;27.00;99.90
21216;DHT22;10765;50.954;5.322;2022-10-28T08:36:11;27.60;99.90
21216;DHT22;10765;50.954;5.322;2022-10-28T08:38:38;28.60;99.90
21216;DHT22;10765;50.954;5.322;2022-10-28T08:41:16;29.20;99.90
21216;DHT22;10765;50.954;5.322;2022-10-28T08:43:55;29.20;99.90
21216;DHT22;10765;50.954;5.322;2022-10-28T08:46:31;28.10;99.90
21216;DHT22;10765;50.954;5.322;2022-10-28T08:49:07;26.90;99.90
21216;DHT22;10765;50.954;5.322;2022-10-28T08:51:39;25.70;99.90
21216;DHT22;10765;50.954;5.322;2022-10-28T08:54:14;25.90;99.90
21216;DHT22;10765;50.954;5.322;2022-10-28T08:56:44;26.50;99.90
21216;DHT22;10765;50.954;5.322;2022-10-28T08:59:16;26.80;99.90
21216;DHT22;10765;50.954;5.322;2022-10-28T09:01:46;27.00;99.90
21216;DHT22;10765;50.954;5.322;2022-10-28T09:04:23;27.20;99.90
21216;DHT22;10765;50.954;5.322;2022-10-28T09:06:52;26.80;99.90
21216;DHT22;10765;50.954;5.322;2022-10-28T09:09:20;26.70;99.90
21216;DHT22;10765;50.954;5.322;2022-10-28T09:12:08;26.80;99.90
21216;DHT22;10765;50.954;5.322;2022-10-28T09:14:57;27.40;99.90
21216;DHT22;10765;50.954;5.322;2022-10-28T09:17:31;27.30;99.90
21216;DHT22;10765;50.954;5.322;2022-10-28T09:20:13;27.60;99.90
21216;DHT22;10765;50.954;5.322;2022-10-28T09:22:49;27.40;99.90
21216;DHT22;10765;50.954;5.322;2022-10-28T09:25:22;27.90;99.90
21216;DHT22;10765;50.954;5.322;2022-10-28T09:28:13;27.80;99.90
21216;DHT22;10765;50.954;5.322;2022-10-28T09:30:50;27.30;99.90
21216;DHT22;10765;50.954;5.322;2022-10-28T09:33:40;28.00;99.90
21216;DHT22;10765;50.954;5.322;2022-10-28T09:36:15;27.70;99.90
21216;DHT22;10765;50.954;5.322;2022-10-28T09:38:43;26.70;99.90
21216;DHT22;10765;50.954;5.322;2022-10-28T09:41:13;26.30;99.90
21216;DHT22;10765;50.954;5.322;2022-10-28T09:43:46;25.90;99.90
21216;DHT22;10765;50.954;5.322;2022-10-28T09:46:16;25.80;99.90
21216;DHT22;10765;50.954;5.322;2022-10-28T09:48:45;26.60;99.90
21216;DHT22;10765;50.954;5.322;2022-10-28T09:51:23;28.40;99.90
21216;DHT22;10765;50.954;5.322;2022-10-28T09:53:56;28.90;99.90
21216;DHT22;10765;50.954;5.322;2022-10-28T09:56:24;29.70;99.90
21216;DHT22;10765;50.954;5.322;2022-10-28T09:58:52;31.00;99.90
21216;DHT22;10765;50.954;5.322;2022-10-28T10:01:19;30.40;99.90
21216;DHT22;10765;50.954;5.322;2022-10-28T10:03:48;29.70;99.90
21216;DHT22;10765;50.954;5.322;2022-10-28T10:06:18;30.30;99.90
21216;DHT22;10765;50.954;5.322;2022-10-28T10:08:48;31.60;99.90
21216;DHT22;10765;50.954;5.322;2022-10-28T10:11:25;31.70;99.90
21216;DHT22;10765;50.954;5.322;2022-10-28T10:13:53;33.00;99.90
21216;DHT22;10765;50.954;5.322;2022-10-28T10:16:32;33.00;99.90
21216;DHT22;10765;50.954;5.322;2022-10-28T10:19:06;31.90;99.90
21216;DHT22;10765;50.954;5.322;2022-10-28T10:21:43;31.30;99.90
21216;DHT22;10765;50.954;5.322;2022-10-28T10:24:30;30.50;99.90
21216;DHT22;10765;50.954;5.322;2022-10-28T10:27:00;30.20;99.90
21216;DHT22;10765;50.954;5.322;2022-10-28T10:29:28;30.80;99.90
21216;DHT22;10765;50.954;5.322;2022-10-28T10:32:12;31.80;99.90
21216;DHT22;10765;50.954;5.322;2022-10-28T10:34:43;32.80;99.90
21216;DHT22;10765;50.954;5.322;2022-10-28T10:37:18;33.50;99.90
21216;DHT22;10765;50.954;5.322;2022-10-28T10:40:03;33.90;99.90
21216;DHT22;10765;50.954;5.322;2022-10-28T10:42:30;33.90;99.90
21216;DHT22;10765;50.954;5.322;2022-10-28T10:45:16;32.60;99.90
21216;DHT22;10765;50.954;5.322;2022-10-28T10:47:44;31.90;99.90
21216;DHT22;10765;50.954;5.322;2022-10-28T10:50:22;31.60;99.90
21216;DHT22;10765;50.954;5.322;2022-10-28T10:52:56;30.60;99.90
21216;DHT22;10765;50.954;5.322;2022-10-28T10:55:31;29.80;99.90
21216;DHT22;10765;50.954;5.322;2022-10-28T10:57:58;29.10;99.90
21216;DHT22;10765;50.954;5.322;2022-10-28T11:00:30;28.20;99.90
21216;DHT22;10765;50.954;5.322;2022-10-28T11:02:58;28.10;99.90
21216;DHT22;10765;50.954;5.322;2022-10-28T11:05:25;27.90;99.90
21216;DHT22;10765;50.954;5.322;2022-10-28T11:07:53;27.70;99.90
21216;DHT22;10765;50.954;5.322;2022-10-28T11:10:24;27.70;99.90
21216;DHT22;10765;50.954;5.322;2022-10-28T11:12:53;27.60;99.90
21216;DHT22;10765;50.954;5.322;2022-10-28T11:15:24;27.90;99.90
21216;DHT22;10765;50.954;5.322;2022-10-28T11:17:56;28.10;99.90
21216;DHT22;10765;50.954;5.322;2022-10-28T11:20:25;27.80;99.90
21216;DHT22;10765;50.954;5.322;2022-10-28T11:23:09;27.50;99.90
21216;DHT22;10765;50.954;5.322;2022-10-28T11:25:40;27.00;99.90
21216;DHT22;10765;50.954;5.322;2022-10-28T11:28:30;27.40;99.90
21216;DHT22;10765;50.954;5.322;2022-10-28T11:31:11;27.60;99.90
21216;DHT22;10765;50.954;5.322;2022-10-28T11:33:46;27.60;99.90
21216;DHT22;10765;50.954;5.322;2022-10-28T11:36:24;27.50;99.90
21216;DHT22;10765;50.954;5.322;2022-10-28T11:39:10;27.40;99.90
21216;DHT22;10765;50.954;5.322;2022-10-28T11:41:52;27.50;99.90
21216;DHT22;10765;50.954;5.322;2022-10-28T11:44:41;27.60;99.90
21216;DHT22;10765;50.954;5.322;2022-10-28T11:47:23;27.30;1.00
21216;DHT22;10765;50.954;5.322;2022-10-28T11:50:08;26.80;1.00
21216;DHT22;10765;50.954;5.322;2022-10-28T11:52:48;26.40;1.00
21216;DHT22;10765;50.954;5.322;2022-10-28T11:55:30;26.30;1.00
21216;DHT22;10765;50.954;5.322;2022-10-28T11:58:05;26.20;1.00
21216;DHT22;10765;50.954;5.322;2022-10-28T12:00:42;26.20;1.00
21216;DHT22;10765;50.954;5.322;2022-10-28T12:03:28;26.30;1.00
21216;DHT22;10765;50.954;5.322;2022-10-28T12:06:09;26.40;1.00
21216;DHT22;10765;50.954;5.322;2022-10-28T12:08:49;26.30;1.00
21216;DHT22;10765;50.954;5.322;2022-10-28T12:11:31;26.20;1.00
21216;DHT22;10765;50.954;5.322;2022-10-28T12:14:08;26.20;1.00
21216;DHT22;10765;50.954;5.322;2022-10-28T12:16:42;26.20;1.00
21216;DHT22;10765;50.954;5.322;2022-10-28T12:19:17;26.20;1.00
21216;DHT22;10765;50.954;5.322;2022-10-28T12:21:51;26.20;1.00
21216;DHT22;10765;50.954;5.322;2022-10-28T12:24:21;26.50;1.00
21216;DHT22;10765;50.954;5.322;2022-10-28T12:26:52;26.40;1.00
21216;DHT22;10765;50.954;5.322;2022-10-28T12:29:24;26.10;1.00
21216;DHT22;10765;50.954;5.322;2022-10-28T12:31:56;26.10;1.00
21216;DHT22;10765;50.954;5.322;2022-10-28T12:34:28;26.20;1.00
21216;DHT22;10765;50.954;5.322;2022-10-28T12:36:59;26.50;1.00
21216;DHT22;10765;50.954;5.322;2022-10-28T12:39:30;26.20;1.00
21216;DHT22;10765;50.954;5.322;2022-10-28T12:42:03;26.10;1.00
21216;DHT22;10765;50.954;5.322;2022-10-28T12:44:32;25.80;1.00
21216;DHT22;10765;50.954;5.322;2022-10-28T12:47:07;25.60;1.00
21216;DHT22;10765;50.954;5.322;2022-10-28T12:49:46;25.60;1.00
21216;DHT22;10765;50.954;5.322;2022-10-28T12:52:30;25.60;1.00
21216;DHT22;10765;50.954;5.322;2022-10-28T12:55:02;25.40;1.00
21216;DHT22;10765;50.954;5.322;2022-10-28T12:57:36;25.30;1.00
21216;DHT22;10765;50.954;5.322;2022-10-28T13:00:08;25.50;1.00
21216;DHT22;10765;50.954;5.322;2022-10-28T13:02:46;25.40;1.00
21216;DHT22;10765;50.954;5.322;2022-10-28T13:05:19;24.80;1.00
21216;DHT22;10765;50.954;5.322;2022-10-28T13:08:01;24.70;1.00
21216;DHT22;10765;50.954;5.322;2022-10-28T13:10:43;24.50;1.00
21216;DHT22;10765;50.954;5.322;2022-10-28T13:13:31;24.40;1.00
21216;DHT22;10765;50.954;5.322;2022-10-28T13:16:36;24.60;1.00
21216;DHT22;10765;50.954;5.322;2022-10-28T13:19:23;25.00;1.00
21216;DHT22;10765;50.954;5.322;2022-10-28T13:22:08;24.90;1.00
21216;DHT22;10765;50.954;5.322;2022-10-28T13:24:45;24.60;1.00
21216;DHT22;10765;50.954;5.322;2022-10-28T13:27:13;24.70;1.00
21216;DHT22;10765;50.954;5.322;2022-10-28T13:29:43;24.90;1.00
21216;DHT22;10765;50.954;5.322;2022-10-28T13:32:32;25.00;1.00
21216;DHT22;10765;50.954;5.322;2022-10-28T13:35:10;25.30;1.00
21216;DHT22;10765;50.954;5.322;2022-10-28T13:37:37;25.50;1.00
21216;DHT22;10765;50.954;5.322;2022-10-28T13:40:09;25.50;1.00
21216;DHT22;10765;50.954;5.322;2022-10-28T13:42:47;25.50;1.00
21216;DHT22;10765;50.954;5.322;2022-10-28T13:45:44;25.40;1.00
21216;DHT22;10765;50.954;5.322;2022-10-28T13:48:43;25.40;1.00
21216;DHT22;10765;50.954;5.322;2022-10-28T13:51:30;26.20;1.00
21216;DHT22;10765;50.954;5.322;2022-10-28T13:53:57;26.10;1.00
21216;DHT22;10765;50.954;5.322;2022-10-28T13:56:43;26.20;1.00
21216;DHT22;10765;50.954;5.322;2022-10-28T13:59:25;26.00;1.00
21216;DHT22;10765;50.954;5.322;2022-10-28T14:01:56;26.20;1.00
21216;DHT22;10765;50.954;5.322;2022-10-28T14:04:31;25.90;1.00
21216;DHT22;10765;50.954;5.322;2022-10-28T14:09:49;24.80;1.00
21216;DHT22;10765;50.954;5.322;2022-10-28T14:12:24;24.30;1.00
21216;DHT22;10765;50.954;5.322;2022-10-28T14:15:14;24.10;1.00
21216;DHT22;10765;50.954;5.322;2022-10-28T14:17:47;24.10;1.00
21216;DHT22;10765;50.954;5.322;2022-10-28T14:20:26;24.30;1.00
21216;DHT22;10765;50.954;5.322;2022-10-28T14:22:53;24.30;1.00
21216;DHT22;10765;50.954;5.322;2022-10-28T14:25:58;24.30;1.00
21216;DHT22;10765;50.954;5.322;2022-10-28T14:28:48;24.20;1.00
21216;DHT22;10765;50.954;5.322;2022-10-28T14:31:31;24.00;1.00
21216;DHT22;10765;50.954;5.322;2022-10-28T14:34:37;23.90;1.00
21216;DHT22;10765;50.954;5.322;2022-10-28T14:37:32;23.90;1.00
21216;DHT22;10765;50.954;5.322;2022-10-28T14:40:30;23.90;1.00
21216;DHT22;10765;50.954;5.322;2022-10-28T14:43:11;23.90;1.00
21216;DHT22;10765;50.954;5.322;2022-10-28T14:45:48;23.90;1.00
21216;DHT22;10765;50.954;5.322;2022-10-28T14:48:44;23.70;1.00
21216;DHT22;10765;50.954;5.322;2022-10-28T14:51:15;23.40;1.00
21216;DHT22;10765;50.954;5.322;2022-10-28T14:53:44;23.40;1.00
21216;DHT22;10765;50.954;5.322;2022-10-28T14:56:19;23.30;1.00
21216;DHT22;10765;50.954;5.322;2022-10-28T14:58:46;23.30;1.00
21216;DHT22;10765;50.954;5.322;2022-10-28T15:01:23;23.20;1.00
21216;DHT22;10765;50.954;5.322;2022-10-28T15:03:54;23.10;1.00
21216;DHT22;10765;50.954;5.322;2022-10-28T15:06:31;22.80;1.00
21216;DHT22;10765;50.954;5.322;2022-10-28T15:09:16;22.70;1.00
21216;DHT22;10765;50.954;5.322;2022-10-28T15:11:46;22.70;1.00
21216;DHT22;10765;50.954;5.322;2022-10-28T15:14:23;22.70;1.00
21216;DHT22;10765;50.954;5.322;2022-10-28T15:16:50;22.70;1.00
21216;DHT22;10765;50.954;5.322;2022-10-28T15:19:19;22.50;1.00
21216;DHT22;10765;50.954;5.322;2022-10-28T15:22:01;22.40;1.00
21216;DHT22;10765;50.954;5.322;2022-10-28T15:24:28;22.40;1.00
21216;DHT22;10765;50.954;5.322;2022-10-28T15:26:56;22.30;1.00
21216;DHT22;10765;50.954;5.322;2022-10-28T15:29:23;22.20;1.00
21216;DHT22;10765;50.954;5.322;2022-10-28T15:32:09;22.20;1.00
21216;DHT22;10765;50.954;5.322;2022-10-28T15:34:38;22.00;1.00
21216;DHT22;10765;50.954;5.322;2022-10-28T15:37:07;21.90;1.00
21216;DHT22;10765;50.954;5.322;2022-10-28T15:39:34;21.70;1.00
21216;DHT22;10765;50.954;5.322;2022-10-28T15:42:01;21.50;1.00
21216;DHT22;10765;50.954;5.322;2022-10-28T15:44:33;21.30;1.00
21216;DHT22;10765;50.954;5.322;2022-10-28T15:47:14;21.20;1.00
21216;DHT22;10765;50.954;5.322;2022-10-28T15:49:42;21.10;1.00
21216;DHT22;10765;50.954;5.322;2022-10-28T15:52:30;21.00;1.00
21216;DHT22;10765;50.954;5.322;2022-10-28T15:54:59;20.90;1.00
21216;DHT22;10765;50.954;5.322;2022-10-28T15:57:28;20.90;1.00
21216;DHT22;10765;50.954;5.322;2022-10-28T16:00:21;20.90;1.00
21216;DHT22;10765;50.954;5.322;2022-10-28T16:02:50;20.80;1.00
21216;DHT22;10765;50.954;5.322;2022-10-28T16:05:53;20.70;1.00
21216;DHT22;10765;50.954;5.322;2022-10-28T16:08:24;20.50;1.00
21216;DHT22;10765;50.954;5.322;2022-10-28T16:10:54;20.40;1.00
21216;DHT22;10765;50.954;5.322;2022-10-28T16:13:25;20.20;1.00